sensor_id;sensor_type;location;lat;lon;timestamp;P1;durP1;ratioP1;P2;durP2;ratioP2
58774;SDS011;44545;47.480;19.024;2023-11-21T04:22:54;2.70;;;1.70;;
58774;SDS011;44545;47.480;19.024;2023-11-21T04:25:57;2.80;;;1.27;;
58774;SDS011;44545;47.480;19.024;2023-11-21T04:28:59;1.17;;;0.88;;
58774;SDS011;44545;47.480;19.024;2023-11-21T04:32:02;1.42;;;0.77;;
58774;SDS011;44545;47.480;19.024;2023-11-21T04:35:05;2.67;;;1.30;;
58774;SDS011;44545;47.480;19.024;2023-11-21T04:38:08;1.35;;;1.25;;
58774;SDS011;44545;47.480;19.024;2023-11-21T04:41:10;1.37;;;0.55;;
58774;SDS011;44545;47.480;19.024;2023-11-21T04:44:14;1.33;;;1.23;;
58774;SDS011;44545;47.480;19.024;2023-11-21T04:47:18;0.93;;;0.88;;
58774;SDS011;44545;47.480;19.024;2023-11-21T04:50:22;0.82;;;0.65;;
58774;SDS011;44545;47.480;19.024;2023-11-21T04:53:24;1.05;;;0.55;;
58774;SDS011;44545;47.480;19.024;2023-11-21T04:56:26;0.98;;;0.88;;
58774;SDS011;44545;47.480;19.024;2023-11-21T04:59:28;0.75;;;0.62;;
58774;SDS011;44545;47.480;19.024;2023-11-21T05:02:31;1.10;;;0.80;;
58774;SDS011;44545;47.480;19.024;2023-11-21T05:05:37;2.50;;;1.20;;
58774;SDS011;44545;47.480;19.024;2023-11-21T05:08:40;0.77;;;0.75;;
58774;SDS011;44545;47.480;19.024;2023-11-21T05:11:42;1.73;;;1.17;;
58774;SDS011;44545;47.480;19.024;2023-11-21T05:14:45;0.98;;;0.40;;
58774;SDS011;44545;47.480;19.024;2023-11-21T05:17:48;1.08;;;0.98;;
58774;SDS011;44545;47.480;19.024;2023-11-21T05:20:52;0.20;;;0.20;;
58774;SDS011;44545;47.480;19.024;2023-11-21T05:23:55;0.90;;;0.50;;
58774;SDS011;44545;47.480;19.024;2023-11-21T05:26:58;1.55;;;1.10;;
58774;SDS011;44545;47.480;19.024;2023-11-21T05:30:04;1.58;;;1.15;;
58774;SDS011;44545;47.480;19.024;2023-11-21T05:33:07;3.62;;;1.52;;
58774;SDS011;44545;47.480;19.024;2023-11-21T05:36:10;1.08;;;0.82;;
58774;SDS011;44545;47.480;19.024;2023-11-21T05:39:13;6.57;;;1.52;;
58774;SDS011;44545;47.480;19.024;2023-11-21T05:42:15;1.50;;;1.40;;
58774;SDS011;44545;47.480;19.024;2023-11-21T05:45:19;4.30;;;0.93;;
58774;SDS011;44545;47.480;19.024;2023-11-21T05:48:21;1.25;;;1.15;;
58774;SDS011;44545;47.480;19.024;2023-11-21T05:51:24;3.28;;;1.33;;
58774;SDS011;44545;47.480;19.024;2023-11-21T05:54:27;1.17;;;0.98;;
58774;SDS011;44545;47.480;19.024;2023-11-21T05:57:29;0.98;;;0.85;;
58774;SDS011;44545;47.480;19.024;2023-11-21T06:00:32;0.47;;;0.30;;
58774;SDS011;44545;47.480;19.024;2023-11-21T06:03:35;0.43;;;0.40;;
58774;SDS011;44545;47.480;19.024;2023-11-21T06:06:37;0.82;;;0.77;;
58774;SDS011;44545;47.480;19.024;2023-11-21T06:09:41;0.57;;;0.30;;
58774;SDS011;44545;47.480;19.024;2023-11-21T06:12:43;0.75;;;0.50;;
58774;SDS011;44545;47.480;19.024;2023-11-21T06:15:45;1.80;;;0.95;;
58774;SDS011;44545;47.480;19.024;2023-11-21T06:18:48;0.82;;;0.68;;
58774;SDS011;44545;47.480;19.024;2023-11-21T06:21:50;1.55;;;0.55;;
58774;SDS011;44545;47.480;19.024;2023-11-21T06:24:52;2.12;;;1.40;;
58774;SDS011;44545;47.480;19.024;2023-11-21T06:27:55;0.88;;;0.50;;
58774;SDS011;44545;47.480;19.024;2023-11-21T06:30:58;1.00;;;0.60;;
58774;SDS011;44545;47.480;19.024;2023-11-21T06:34:01;1.85;;;0.88;;
58774;SDS011;44545;47.480;19.024;2023-11-21T06:37:03;1.42;;;0.98;;
58774;SDS011;44545;47.480;19.024;2023-11-21T06:40:06;1.45;;;1.35;;
58774;SDS011;44545;47.480;19.024;2023-11-21T06:43:09;0.55;;;0.55;;
58774;SDS011;44545;47.480;19.024;2023-11-21T06:46:12;1.15;;;0.85;;
58774;SDS011;44545;47.480;19.024;2023-11-21T06:49:17;1.37;;;1.08;;
58774;SDS011;44545;47.480;19.024;2023-11-21T06:52:20;2.28;;;1.45;;
58774;SDS011;44545;47.480;19.024;2023-11-21T06:55:22;2.17;;;0.68;;
58774;SDS011;44545;47.480;19.024;2023-11-21T06:58:25;2.55;;;1.83;;
58774;SDS011;44545;47.480;19.024;2023-11-21T07:01:27;2.28;;;1.27;;
58774;SDS011;44545;47.480;19.024;2023-11-21T07:04:31;0.68;;;0.57;;
58774;SDS011;44545;47.480;19.024;2023-11-21T07:07:33;5.03;;;0.80;;
58774;SDS011;44545;47.480;19.024;2023-11-21T07:10:38;1.00;;;0.75;;
58774;SDS011;44545;47.480;19.024;2023-11-21T07:13:40;2.37;;;1.33;;
58774;SDS011;44545;47.480;19.024;2023-11-21T07:16:43;2.17;;;1.80;;
58774;SDS011;44545;47.480;19.024;2023-11-21T07:19:45;1.87;;;1.10;;
58774;SDS011;44545;47.480;19.024;2023-11-21T07:22:47;3.53;;;1.15;;
58774;SDS011;44545;47.480;19.024;2023-11-21T07:25:50;5.65;;;2.05;;
58774;SDS011;44545;47.480;19.024;2023-11-21T07:28:53;9.05;;;2.53;;
58774;SDS011;44545;47.480;19.024;2023-11-21T07:31:58;8.52;;;2.17;;
58774;SDS011;44545;47.480;19.024;2023-11-21T07:35:02;5.22;;;2.22;;
58774;SDS011;44545;47.480;19.024;2023-11-21T07:38:05;2.22;;;2.03;;
58774;SDS011;44545;47.480;19.024;2023-11-21T07:41:08;6.15;;;3.28;;
58774;SDS011;44545;47.480;19.024;2023-11-21T07:44:26;6.90;;;2.03;;
58774;SDS011;44545;47.480;19.024;2023-11-21T07:47:29;14.57;;;2.50;;
58774;SDS011;44545;47.480;19.024;2023-11-21T07:50:32;3.47;;;2.58;;
58774;SDS011;44545;47.480;19.024;2023-11-21T07:53:34;2.37;;;1.58;;
58774;SDS011;44545;47.480;19.024;2023-11-21T07:56:37;6.22;;;2.03;;
58774;SDS011;44545;47.480;19.024;2023-11-21T07:59:40;4.07;;;1.95;;
58774;SDS011;44545;47.480;19.024;2023-11-21T08:02:42;5.07;;;1.95;;
58774;SDS011;44545;47.480;19.024;2023-11-21T08:05:48;2.60;;;1.73;;
58774;SDS011;44545;47.480;19.024;2023-11-21T08:08:51;1.70;;;1.30;;
58774;SDS011;44545;47.480;19.024;2023-11-21T08:11:54;3.47;;;2.03;;
58774;SDS011;44545;47.480;19.024;2023-11-21T08:14:56;7.10;;;1.95;;
58774;SDS011;44545;47.480;19.024;2023-11-21T08:17:59;2.17;;;1.52;;
58774;SDS011;44545;47.480;19.024;2023-11-21T08:21:01;1.95;;;1.20;;
58774;SDS011;44545;47.480;19.024;2023-11-21T08:24:06;1.17;;;1.08;;
58774;SDS011;44545;47.480;19.024;2023-11-21T08:27:12;5.15;;;1.10;;
58774;SDS011;44545;47.480;19.024;2023-11-21T08:30:18;2.28;;;1.40;;
58774;SDS011;44545;47.480;19.024;2023-11-21T08:33:21;2.50;;;1.50;;
58774;SDS011;44545;47.480;19.024;2023-11-21T08:36:25;1.70;;;1.15;;
58774;SDS011;44545;47.480;19.024;2023-11-21T08:39:27;2.42;;;1.42;;
58774;SDS011;44545;47.480;19.024;2023-11-21T08:42:30;2.12;;;1.25;;
58774;SDS011;44545;47.480;19.024;2023-11-21T08:45:32;2.12;;;1.70;;
58774;SDS011;44545;47.480;19.024;2023-11-21T08:48:36;2.12;;;1.12;;
58774;SDS011;44545;47.480;19.024;2023-11-21T08:51:39;1.98;;;1.50;;
58774;SDS011;44545;47.480;19.024;2023-11-21T08:54:41;2.25;;;1.73;;
58774;SDS011;44545;47.480;19.024;2023-11-21T08:57:45;3.40;;;1.80;;
58774;SDS011;44545;47.480;19.024;2023-11-21T09:00:52;2.50;;;1.62;;
58774;SDS011;44545;47.480;19.024;2023-11-21T09:03:54;3.72;;;1.98;;
58774;SDS011;44545;47.480;19.024;2023-11-21T09:06:57;2.78;;;2.12;;
58774;SDS011;44545;47.480;19.024;2023-11-21T09:10:05;4.80;;;1.52;;
58774;SDS011;44545;47.480;19.024;2023-11-21T09:13:09;2.85;;;2.17;;
58774;SDS011;44545;47.480;19.024;2023-11-21T09:16:13;5.03;;;1.73;;
58774;SDS011;44545;47.480;19.024;2023-11-21T09:19:16;3.70;;;1.73;;
58774;SDS011;44545;47.480;19.024;2023-11-21T09:22:18;5.65;;;1.77;;
58774;SDS011;44545;47.480;19.024;2023-11-21T09:25:21;1.95;;;1.05;;
58774;SDS011;44545;47.480;19.024;2023-11-21T09:28:23;3.03;;;2.05;;
58774;SDS011;44545;47.480;19.024;2023-11-21T09:31:26;3.72;;;2.53;;
58774;SDS011;44545;47.480;19.024;2023-11-21T09:34:30;8.40;;;3.65;;
58774;SDS011;44545;47.480;19.024;2023-11-21T09:37:34;4.28;;;2.53;;
58774;SDS011;44545;47.480;19.024;2023-11-21T09:40:40;6.05;;;2.75;;
58774;SDS011;44545;47.480;19.024;2023-11-21T09:43:44;16.08;;;3.30;;
58774;SDS011;44545;47.480;19.024;2023-11-21T09:46:48;21.17;;;2.67;;
58774;SDS011;44545;47.480;19.024;2023-11-21T09:49:53;9.75;;;3.85;;
58774;SDS011;44545;47.480;19.024;2023-11-21T09:53:11;4.37;;;2.80;;
58774;SDS011;44545;47.480;19.024;2023-11-21T09:56:17;9.93;;;4.15;;
58774;SDS011;44545;47.480;19.024;2023-11-21T09:59:25;5.00;;;2.58;;
58774;SDS011;44545;47.480;19.024;2023-11-21T10:02:32;6.10;;;2.50;;
58774;SDS011;44545;47.480;19.024;2023-11-21T10:05:39;3.72;;;2.83;;
58774;SDS011;44545;47.480;19.024;2023-11-21T10:08:43;3.00;;;1.98;;
58774;SDS011;44545;47.480;19.024;2023-11-21T10:11:56;3.40;;;2.22;;
58774;SDS011;44545;47.480;19.024;2023-11-21T10:15:02;4.18;;;1.98;;
58774;SDS011;44545;47.480;19.024;2023-11-21T10:18:08;6.82;;;3.05;;
58774;SDS011;44545;47.480;19.024;2023-11-21T10:21:11;4.68;;;2.60;;
58774;SDS011;44545;47.480;19.024;2023-11-21T10:24:14;6.47;;;3.75;;
58774;SDS011;44545;47.480;19.024;2023-11-21T10:27:17;6.43;;;3.12;;
58774;SDS011;44545;47.480;19.024;2023-11-21T10:30:20;4.97;;;3.42;;
58774;SDS011;44545;47.480;19.024;2023-11-21T10:33:29;6.82;;;4.28;;
58774;SDS011;44545;47.480;19.024;2023-11-21T10:36:31;3.40;;;2.78;;
58774;SDS011;44545;47.480;19.024;2023-11-21T10:39:35;9.98;;;2.62;;
58774;SDS011;44545;47.480;19.024;2023-11-21T10:42:40;7.72;;;2.15;;
58774;SDS011;44545;47.480;19.024;2023-11-21T10:45:43;9.23;;;2.40;;
58774;SDS011;44545;47.480;19.024;2023-11-21T10:48:51;5.78;;;3.80;;
58774;SDS011;44545;47.480;19.024;2023-11-21T10:51:58;6.43;;;3.15;;
58774;SDS011;44545;47.480;19.024;2023-11-21T10:55:00;3.78;;;2.12;;
58774;SDS011;44545;47.480;19.024;2023-11-21T10:58:05;5.72;;;2.97;;
58774;SDS011;44545;47.480;19.024;2023-11-21T11:01:08;4.25;;;2.83;;
58774;SDS011;44545;47.480;19.024;2023-11-21T11:04:14;6.40;;;2.97;;
58774;SDS011;44545;47.480;19.024;2023-11-21T11:07:19;6.55;;;2.78;;
58774;SDS011;44545;47.480;19.024;2023-11-21T11:10:25;7.37;;;3.53;;
58774;SDS011;44545;47.480;19.024;2023-11-21T11:13:29;6.22;;;2.55;;
58774;SDS011;44545;47.480;19.024;2023-11-21T11:16:32;5.45;;;2.50;;
58774;SDS011;44545;47.480;19.024;2023-11-21T11:19:37;11.63;;;3.85;;
58774;SDS011;44545;47.480;19.024;2023-11-21T11:39:40;7.25;;;2.83;;
58774;SDS011;44545;47.480;19.024;2023-11-21T11:42:55;5.22;;;2.37;;
58774;SDS011;44545;47.480;19.024;2023-11-21T11:46:02;3.62;;;2.47;;
58774;SDS011;44545;47.480;19.024;2023-11-21T11:49:08;4.53;;;2.40;;
58774;SDS011;44545;47.480;19.024;2023-11-21T11:52:31;7.80;;;3.12;;
58774;SDS011;44545;47.480;19.024;2023-11-21T11:55:37;7.28;;;2.17;;
58774;SDS011;44545;47.480;19.024;2023-11-21T11:58:40;7.00;;;2.47;;
58774;SDS011;44545;47.480;19.024;2023-11-21T12:01:44;2.47;;;1.58;;
58774;SDS011;44545;47.480;19.024;2023-11-21T12:04:49;3.47;;;1.87;;
58774;SDS011;44545;47.480;19.024;2023-11-21T12:07:52;6.12;;;1.25;;
58774;SDS011;44545;47.480;19.024;2023-11-21T12:11:00;7.78;;;3.40;;
58774;SDS011;44545;47.480;19.024;2023-11-21T12:14:03;5.70;;;2.80;;
58774;SDS011;44545;47.480;19.024;2023-11-21T12:17:07;8.57;;;2.53;;
58774;SDS011;44545;47.480;19.024;2023-11-21T12:20:11;4.37;;;2.45;;
58774;SDS011;44545;47.480;19.024;2023-11-21T12:23:19;4.12;;;2.58;;
58774;SDS011;44545;47.480;19.024;2023-11-21T12:26:23;6.57;;;2.72;;
58774;SDS011;44545;47.480;19.024;2023-11-21T12:29:26;3.55;;;2.17;;
58774;SDS011;44545;47.480;19.024;2023-11-21T12:32:31;4.43;;;2.65;;
58774;SDS011;44545;47.480;19.024;2023-11-21T12:35:34;5.18;;;2.60;;
58774;SDS011;44545;47.480;19.024;2023-11-21T12:38:37;5.70;;;1.83;;
58774;SDS011;44545;47.480;19.024;2023-11-21T12:41:40;5.93;;;2.40;;
58774;SDS011;44545;47.480;19.024;2023-11-21T12:44:43;3.45;;;1.75;;
58774;SDS011;44545;47.480;19.024;2023-11-21T12:47:51;5.15;;;2.05;;
58774;SDS011;44545;47.480;19.024;2023-11-21T12:50:59;3.78;;;2.33;;
58774;SDS011;44545;47.480;19.024;2023-11-21T12:54:05;10.27;;;2.03;;
58774;SDS011;44545;47.480;19.024;2023-11-21T12:57:08;3.58;;;2.22;;
58774;SDS011;44545;47.480;19.024;2023-11-21T13:00:12;3.70;;;2.10;;
58774;SDS011;44545;47.480;19.024;2023-11-21T13:03:25;2.85;;;1.73;;
58774;SDS011;44545;47.480;19.024;2023-11-21T13:06:29;4.28;;;1.75;;
58774;SDS011;44545;47.480;19.024;2023-11-21T13:09:37;2.40;;;1.55;;
58774;SDS011;44545;47.480;19.024;2023-11-21T13:12:44;1.23;;;0.93;;
58774;SDS011;44545;47.480;19.024;2023-11-21T13:15:51;2.65;;;1.65;;
58774;SDS011;44545;47.480;19.024;2023-11-21T13:18:59;1.95;;;1.33;;
58774;SDS011;44545;47.480;19.024;2023-11-21T13:22:01;1.35;;;0.88;;
58774;SDS011;44545;47.480;19.024;2023-11-21T13:25:06;1.42;;;1.02;;
58774;SDS011;44545;47.480;19.024;2023-11-21T13:28:09;1.62;;;1.27;;
58774;SDS011;44545;47.480;19.024;2023-11-21T13:31:13;2.35;;;1.40;;
58774;SDS011;44545;47.480;19.024;2023-11-21T13:34:28;9.45;;;2.80;;
58774;SDS011;44545;47.480;19.024;2023-11-21T13:37:35;3.97;;;1.90;;
58774;SDS011;44545;47.480;19.024;2023-11-21T13:40:39;8.27;;;2.17;;
58774;SDS011;44545;47.480;19.024;2023-11-21T13:43:48;3.50;;;1.95;;
58774;SDS011;44545;47.480;19.024;2023-11-21T13:46:59;4.95;;;2.17;;
58774;SDS011;44545;47.480;19.024;2023-11-21T13:50:02;2.60;;;1.85;;
58774;SDS011;44545;47.480;19.024;2023-11-21T13:53:05;2.45;;;1.70;;
58774;SDS011;44545;47.480;19.024;2023-11-21T13:56:28;4.30;;;2.33;;
58774;SDS011;44545;47.480;19.024;2023-11-21T13:59:31;2.40;;;1.60;;
58774;SDS011;44545;47.480;19.024;2023-11-21T14:02:34;4.45;;;2.10;;
58774;SDS011;44545;47.480;19.024;2023-11-21T14:05:42;6.95;;;2.75;;
58774;SDS011;44545;47.480;19.024;2023-11-21T14:08:45;3.20;;;2.05;;
58774;SDS011;44545;47.480;19.024;2023-11-21T14:11:50;7.82;;;2.10;;
58774;SDS011;44545;47.480;19.024;2023-11-21T14:15:00;5.28;;;3.15;;
58774;SDS011;44545;47.480;19.024;2023-11-21T14:18:05;6.97;;;4.65;;
58774;SDS011;44545;47.480;19.024;2023-11-21T14:21:10;3.50;;;2.15;;
58774;SDS011;44545;47.480;19.024;2023-11-21T14:24:13;6.78;;;3.10;;
58774;SDS011;44545;47.480;19.024;2023-11-21T14:27:15;3.03;;;2.03;;
58774;SDS011;44545;47.480;19.024;2023-11-21T14:30:18;4.62;;;3.28;;
58774;SDS011;44545;47.480;19.024;2023-11-21T14:33:21;4.25;;;2.22;;
58774;SDS011;44545;47.480;19.024;2023-11-21T14:36:25;3.78;;;1.95;;
58774;SDS011;44545;47.480;19.024;2023-11-21T14:39:28;2.47;;;1.40;;
58774;SDS011;44545;47.480;19.024;2023-11-21T14:42:31;3.58;;;1.92;;
58774;SDS011;44545;47.480;19.024;2023-11-21T14:45:33;3.10;;;1.85;;
58774;SDS011;44545;47.480;19.024;2023-11-21T14:48:36;2.70;;;1.60;;
58774;SDS011;44545;47.480;19.024;2023-11-21T14:51:45;5.12;;;1.85;;
58774;SDS011;44545;47.480;19.024;2023-11-21T14:55:10;6.30;;;1.83;;
58774;SDS011;44545;47.480;19.024;2023-11-21T14:58:34;2.70;;;1.90;;
58774;SDS011;44545;47.480;19.024;2023-11-21T15:01:38;3.12;;;1.67;;
58774;SDS011;44545;47.480;19.024;2023-11-21T15:04:56;2.97;;;1.67;;
58774;SDS011;44545;47.480;19.024;2023-11-21T15:08:04;4.03;;;1.48;;
58774;SDS011;44545;47.480;19.024;2023-11-21T15:11:23;1.73;;;1.23;;
58774;SDS011;44545;47.480;19.024;2023-11-21T15:14:32;4.15;;;1.48;;
58774;SDS011;44545;47.480;19.024;2023-11-21T15:17:38;6.47;;;1.23;;
58774;SDS011;44545;47.480;19.024;2023-11-21T15:20:45;2.40;;;1.17;;
58774;SDS011;44545;47.480;19.024;2023-11-21T15:23:47;8.25;;;0.60;;
58774;SDS011;44545;47.480;19.024;2023-11-21T15:26:50;6.87;;;1.27;;
58774;SDS011;44545;47.480;19.024;2023-11-21T15:29:53;2.28;;;1.12;;
58774;SDS011;44545;47.480;19.024;2023-11-21T15:32:56;1.27;;;0.90;;
58774;SDS011;44545;47.480;19.024;2023-11-21T15:35:58;1.90;;;1.00;;
58774;SDS011;44545;47.480;19.024;2023-11-21T15:39:03;1.95;;;1.40;;
58774;SDS011;44545;47.480;19.024;2023-11-21T15:42:05;2.95;;;1.23;;
58774;SDS011;44545;47.480;19.024;2023-11-21T15:45:09;3.50;;;1.12;;
58774;SDS011;44545;47.480;19.024;2023-11-21T15:48:12;1.55;;;1.05;;
58774;SDS011;44545;47.480;19.024;2023-11-21T15:51:15;1.65;;;1.08;;
58774;SDS011;44545;47.480;19.024;2023-11-21T15:54:18;1.20;;;0.98;;
58774;SDS011;44545;47.480;19.024;2023-11-21T15:57:23;5.47;;;1.98;;
58774;SDS011;44545;47.480;19.024;2023-11-21T16:00:26;1.23;;;1.00;;
58774;SDS011;44545;47.480;19.024;2023-11-21T16:03:29;1.83;;;0.95;;
58774;SDS011;44545;47.480;19.024;2023-11-21T16:06:35;2.40;;;1.30;;
58774;SDS011;44545;47.480;19.024;2023-11-21T16:09:41;2.92;;;1.73;;
58774;SDS011;44545;47.480;19.024;2023-11-21T16:12:45;1.70;;;1.17;;
58774;SDS011;44545;47.480;19.024;2023-11-21T16:15:47;2.55;;;1.58;;
58774;SDS011;44545;47.480;19.024;2023-11-21T16:18:53;0.80;;;0.77;;
58774;SDS011;44545;47.480;19.024;2023-11-21T16:21:55;3.05;;;1.12;;
58774;SDS011;44545;47.480;19.024;2023-11-21T16:24:57;0.70;;;0.60;;
58774;SDS011;44545;47.480;19.024;2023-11-21T16:28:00;2.20;;;1.20;;
58774;SDS011;44545;47.480;19.024;2023-11-21T16:31:06;2.53;;;1.37;;
58774;SDS011;44545;47.480;19.024;2023-11-21T16:34:12;3.60;;;0.70;;
58774;SDS011;44545;47.480;19.024;2023-11-21T16:37:21;0.95;;;0.70;;
58774;SDS011;44545;47.480;19.024;2023-11-21T16:40:24;4.12;;;1.10;;
